Aeroporto :
LOGIN :

Iscrizione | Disclaimer

   EN    FR    IT 

 










Sommario :    VFR   VFR Marginale   IFR   IFR Intensivo   IFR Molto Intensivo
Visibilità : 
Base nubi : 
>= 8 km
>= 3000ft
5 / 8 km
1000 / 3000 ft
1500m / 5 km
500 / 1000 ft
800 / 1500m
200 / 500 ft
< 800m
< 200 ft
Simboli :   Temporali  Nebbia  Neve Forte  Precipitazioni Forti  Vento > 20 kt
SIGMETs :   Varie  Temporali  Ghiacco  Turbolenza  Onda orograficha  Ceneri Vulcaniche






- Altitudine del aeroporto : 124 ft
- Codice IATA : RNS


LFRN - Rennes

ULTIMO METAR :
  • 150400Z AUTO 22008KT CAVOK 08/05 Q1001 TEMPO 4000 SHRA BKN012TCU

METARs OBSOLETI :
  • 150330Z AUTO 23010KT CAVOK 09/06 Q1000 TEMPO 4000 SHRA BKN012TCU
  • 150300Z AUTO 22006KT 9999 FEW021 09/07 Q1000 TEMPO 4000 SHRA BKN012TCU
  • 150230Z AUTO 25010KT 9999 BKN023 BKN029 BKN040 10/07 Q1000 TEMPO 4000 SHRA BKN012TCU
  • 150200Z AUTO 24013KT 210V270 9999 BKN024 BKN056 BKN066 11/07 Q0999 TEMPO 4000 SHRA BKN012TCU
  • 150130Z AUTO 24016KT 9999 FEW033/// OVC060/// ///TCU 11/07 Q0999 TEMPO 4000 SHRA BKN012TCU

TAF TAF LFRN
Valido dal 15 a 00 ore il 16 a 00 ore UTC


142300Z 1500/1524 22015G25KT 9999 BKN030
TEMPO 1500/1502 24020G35KT
TEMPO 1500/1506 4000 SHRA BKN012TCU
BECMG 1502/1504 22010KT
TEMPO 1518/1524 19015G25KT 5000 SHRA
ATIS : +33 2 99 67 72 50



MetMap, La meteo Aeronautica in un colpo d'occhio ! - Copyright ORBIFLY Dicembre 2007 - Disclaimer

ORBIFLY MET'MAP TEAM :

Programmazione e sviluppo : Alexandra Zaïnal
Concezione : Baudouin d'Aumeries
Aiuto per la programmazione : Marc-Olivier Méhu
Supporto tecnico e logistico : Manuel Goepfert
Aiuto per la traduzione : Arnaldo La Scala

Contatto : metmap@orbifly.com




FONTI E CREDITI :

   NOAA